Clifton, North Carolina
Current Conditions -  °F | °C
As of 2:35 AM on Sunday 23 Nov 2014 (Local Time) from KGEV Reporting Station
Scattered Clouds Scattered Clouds  
Wind Chill: 38°   Ceiling: Unl
Heat Index: 38°   Visibility: 10mi
Dew Point: 21°   Wind: 3mph
Humidity: 50%   Direction: 160°SSE
Pressure: 30.21"   Gusts: NA
Location:  36.4565°N, 81.5501°W
Report Text: KGEV 230735Z AUTO 16003KT 10SM SCT020 04/M06 A3021 RMK AO2 T00361061
Loading
Personal Weather Stations






























Interactive Weather Map New forecast layout! Learn more

10-Day Weather Forecast

Advertisements
Track Severe Weather on mobile